Time;durP1;ratioP1;P1;durP2;ratioP2;P2;SDS_P1;SDS_P2;PMS_P1;PMS_P2;Temp;Humidity;BMP_temperature;BMP_pressure;BME280_temperature;BME280_humidity;BME280_pressure;Samples;Min_cycle;Max_cycle;Signal;HPM_P1;HPM_P2
2023/12/22 00:02:18;;;;;;;;;2.00;1.25;;;;;-143.90;100.00;73634.38;4894632;28;104008;-72
2023/12/22 00:04:45;;;;;;;;;3.00;3.00;;;;;-143.90;100.00;73628.16;4899148;28;102372;-73
2023/12/22 00:07:11;;;;;;;;;2.25;2.25;;;;;-143.90;100.00;73634.38;4900198;28;104116;-72
2023/12/22 00:09:38;;;;;;;;;2.50;2.00;;;;;-143.90;100.00;73640.56;4903651;28;102722;-72
2023/12/22 00:12:05;;;;;;;;;2.75;2.00;;;;;-143.90;100.00;73652.97;4899591;28;104414;-72
2023/12/22 00:14:32;;;;;;;;;1.00;1.00;;;;;-143.90;100.00;73659.16;4889387;28;102890;-72
2023/12/22 00:16:58;;;;;;;;;6.00;2.00;;;;;-143.90;100.00;73675.69;4899906;28;104076;-73
2023/12/22 00:19:25;;;;;;;;;3.00;2.00;;;;;-143.90;100.00;73671.56;4902848;28;102139;-73
2023/12/22 00:21:52;;;;;;;;;2.50;1.50;;;;;-143.90;100.00;73683.97;4901287;28;104104;-72
2023/12/22 00:24:18;;;;;;;;;2.25;1.25;;;;;-143.90;100.00;73721.16;4889190;28;103666;-75
2023/12/22 00:26:45;;;;;;;;;2.25;2.00;;;;;-143.90;100.00;73708.78;4899027;28;102366;-73
2023/12/22 00:29:12;;;;;;;;;1.00;1.00;;;;;-143.90;100.00;73696.38;4901744;28;102465;-72
2023/12/22 00:31:38;;;;;;;;;2.00;1.50;;;;;-143.90;100.00;73717.03;4894676;28;104176;-73
2023/12/22 00:34:05;;;;;;;;;2.00;1.00;;;;;-143.90;100.00;73733.56;4913180;28;102566;-73
2023/12/22 00:36:32;;;;;;;;;4.00;2.50;;;;;-143.90;100.00;73741.84;4888812;28;102173;-72
2023/12/22 00:38:58;;;;;;;;;2.00;1.75;;;;;-143.90;100.00;73750.09;4903307;28;104657;-72
2023/12/22 00:41:25;;;;;;;;;1.75;1.00;;;;;-143.90;100.00;73762.50;4902233;28;104493;-72
2023/12/22 00:43:52;;;;;;;;;3.75;2.50;;;;;-143.90;100.00;73754.25;4900102;28;104191;-72
2023/12/22 00:46:19;;;;;;;;;3.00;2.25;;;;;-143.90;100.00;73770.78;4895410;28;102664;-73
2023/12/22 00:48:46;;;;;;;;;2.00;1.75;;;;;-143.90;100.00;73783.16;4903766;28;103408;-71
2023/12/22 00:51:13;;;;;;;;;4.00;3.00;;;;;-143.90;100.00;73793.50;4904683;28;104131;-72
2023/12/22 00:53:40;;;;;;;;;6.00;5.00;;;;;-143.90;100.00;73797.63;4904621;28;102557;-73
2023/12/22 00:56:09;;;;;;;;;2.75;2.00;;;;;-143.90;100.00;73799.69;4902744;28;102869;-73
2023/12/22 00:58:35;;;;;;;;;4.50;2.25;;;;;-143.90;100.00;73803.84;4893226;28;102331;-73
2023/12/22 01:01:02;;;;;;;;;3.00;2.00;;;;;-143.90;100.00;73799.69;4901937;28;104216;-73
2023/12/22 01:03:29;;;;;;;;;2.75;2.00;;;;;-143.90;100.00;73787.31;4905215;28;103426;-74
2023/12/22 01:05:55;;;;;;;;;4.00;2.00;;;;;-143.90;100.00;73779.03;4912005;28;103775;-72
2023/12/22 01:08:22;;;;;;;;;4.50;2.00;;;;;-143.90;100.00;73768.69;4894162;28;103772;-73
2023/12/22 01:10:49;;;;;;;;;1.25;1.25;;;;;-143.90;100.00;73764.56;4905737;28;104471;-74
2023/12/22 01:13:16;;;;;;;;;3.00;2.00;;;;;-143.90;100.00;73768.69;4920536;28;102363;-73
2023/12/22 01:15:43;;;;;;;;;0.75;0.75;;;;;-143.90;100.00;73766.63;4906442;28;102913;-74
2023/12/22 01:18:11;;;;;;;;;3.00;1.25;;;;;-143.90;100.00;73768.69;4905999;28;102536;-71
2023/12/22 01:20:40;;;;;;;;;1.00;1.00;;;;;-143.90;100.00;73762.50;4899840;28;104085;-73
2023/12/22 01:23:06;;;;;;;;;1.50;1.50;;;;;-143.90;100.00;73779.03;4904744;28;103339;-72
2023/12/22 01:25:33;;;;;;;;;0.75;0.75;;;;;-143.90;100.00;73774.91;4906462;28;102266;-73
2023/12/22 01:28:00;;;;;;;;;1.25;1.25;;;;;-143.90;100.00;73781.09;4923147;28;104413;-74
2023/12/22 01:30:31;;;;;;;;;1.75;1.00;;;;;-143.90;100.00;73785.25;4891908;28;104037;-73
2023/12/22 01:32:57;;;;;;;;;4.00;1.50;;;;;-143.90;100.00;73787.31;4908153;28;102925;-73
2023/12/22 01:35:24;;;;;;;;;1.25;1.25;;;;;-143.90;100.00;73810.03;4907892;28;102259;-72
2023/12/22 01:37:51;;;;;;;;;4.00;1.50;;;;;-143.90;100.00;73807.97;4904286;28;102190;-73
2023/12/22 01:40:18;;;;;;;;;2.00;1.00;;;;;-143.90;100.00;73816.25;4913070;28;104961;-74
2023/12/22 01:42:45;;;;;;;;;1.25;1.25;;;;;-143.90;100.00;73820.38;4902973;28;102258;-72
2023/12/22 01:45:12;;;;;;;;;2.00;1.00;;;;;-143.90;100.00;73812.09;4903665;28;102372;-72
2023/12/22 01:47:39;;;;;;;;;2.25;0.50;;;;;-143.90;100.00;73820.38;4892224;28;102449;-73
2023/12/22 01:50:06;;;;;;;;;2.75;1.00;;;;;-143.90;100.00;73818.31;4903790;28;104192;-72
2023/12/22 01:52:33;;;;;;;;;1.25;1.00;;;;;-143.90;100.00;73830.69;4891907;28;102299;-72
2023/12/22 01:55:00;;;;;;;;;1.00;1.00;;;;;-143.90;100.00;73841.03;4902067;28;102522;-72
2023/12/22 01:57:27;;;;;;;;;1.75;1.00;;;;;-143.90;100.00;73855.50;4907675;28;102690;-72
2023/12/22 01:59:53;;;;;;;;;2.50;1.00;;;;;-143.90;100.00;73863.78;4903428;28;104055;-71
2023/12/22 02:02:20;;;;;;;;;1.75;1.00;;;;;-143.90;100.00;73861.69;4897422;28;102144;-71
2023/12/22 02:04:47;;;;;;;;;0.25;0.00;;;;;-143.90;100.00;73863.78;4897961;28;102427;-72
2023/12/22 02:07:14;;;;;;;;;1.00;0.00;;;;;-143.90;100.00;73851.38;4902348;28;102699;-72
2023/12/22 02:09:41;;;;;;;;;2.00;2.00;;;;;-143.90;100.00;73859.63;4559615;28;10000411;-72
2023/12/22 02:12:07;;;;;;;;;5.50;1.75;;;;;-143.90;100.00;73872.03;4897297;28;102746;-72
2023/12/22 02:14:34;;;;;;;;;0.75;0.75;;;;;-143.90;100.00;73872.03;4892172;28;102537;-73
2023/12/22 02:17:24;;;;;;;;;0.00;0.00;;;;;-143.90;100.00;73861.69;4901484;28;103910;-73
2023/12/22 02:19:51;;;;;;;;;1.25;1.25;;;;;-143.90;100.00;73857.56;4904881;28;102307;-72
2023/12/22 02:22:17;;;;;;;;;1.50;1.00;;;;;-143.90;100.00;73863.78;4896501;28;104100;-72
2023/12/22 02:24:44;;;;;;;;;0.00;0.00;;;;;-143.90;100.00;73863.78;4901447;28;102411;-72
2023/12/22 02:27:22;;;;;;;;;1.00;1.00;;;;;-143.90;100.00;73886.50;4899035;28;102214;-73
2023/12/22 02:30:01;;;;;;;;;0.00;0.00;;;;;-143.90;100.00;73876.16;4901149;28;107641;-74
2023/12/22 02:32:33;;;;;;;;;1.75;0.00;;;;;-143.90;100.00;73872.03;4889705;28;109005;-71
2023/12/22 02:35:04;;;;;;;;;0.00;0.00;;;;;-143.90;100.00;73872.03;4900476;28;107842;-73
2023/12/22 02:37:34;;;;;;;;;2.25;0.75;;;;;-143.90;100.00;73872.03;4897271;28;102924;-73
2023/12/22 02:40:01;;;;;;;;;1.50;1.00;;;;;-143.90;100.00;73859.63;4892094;28;102527;-73
2023/12/22 02:42:30;;;;;;;;;1.00;1.00;;;;;-143.90;100.00;73861.69;4890465;28;103991;-73
2023/12/22 02:44:58;;;;;;;;;0.75;0.75;;;;;-143.90;100.00;73857.56;4900151;28;102202;-72
2023/12/22 02:47:27;;;;;;;;;1.00;1.00;;;;;-143.90;100.00;73849.31;4897207;28;102598;-73
2023/12/22 02:49:54;;;;;;;;;1.25;1.25;;;;;-143.90;100.00;73838.97;4901929;28;102502;-72
2023/12/22 02:52:21;;;;;;;;;0.25;0.00;;;;;-143.90;100.00;73851.38;4892106;28;103067;-73
2023/12/22 02:54:48;;;;;;;;;1.00;1.00;;;;;-143.90;100.00;73849.31;4903131;28;103903;-72
2023/12/22 02:57:14;;;;;;;;;2.00;1.00;;;;;-143.90;100.00;73843.09;4900073;28;102441;-72
2023/12/22 02:59:41;;;;;;;;;2.00;1.00;;;;;-143.90;100.00;73841.03;4890523;28;102930;-73
2023/12/22 03:02:08;;;;;;;;;0.25;0.00;;;;;-143.90;100.00;73851.38;4884905;28;104178;-72
2023/12/22 03:04:34;;;;;;;;;0.75;0.75;;;;;-143.90;98.51;73853.44;4889541;28;102634;-72
2023/12/22 03:07:01;;;;;;;;;1.00;0.00;;;;;-143.90;98.63;73865.84;4897119;28;102758;-73
2023/12/22 03:09:28;;;;;;;;;3.00;0.75;;;;;-143.90;97.08;73845.16;4905903;28;103249;-72
2023/12/22 03:11:56;;;;;;;;;1.50;0.00;;;;;-143.90;96.50;73847.25;4898937;28;108923;-72
2023/12/22 03:14:23;;;;;;;;;1.25;0.25;;;;;-143.90;96.96;73845.16;4891140;28;103231;-73
2023/12/22 03:16:49;;;;;;;;;0.25;0.00;;;;;-143.90;97.04;73836.91;4892837;28;102695;-73
2023/12/22 03:19:16;;;;;;;;;1.50;1.00;;;;;-143.90;96.90;73845.16;4907903;28;102432;-72
2023/12/22 03:21:43;;;;;;;;;1.75;1.00;;;;;-143.90;96.79;73841.03;4905041;28;104471;-72
2023/12/22 03:24:09;;;;;;;;;0.00;0.00;;;;;-143.90;96.38;73849.31;4900863;28;102582;-72
2023/12/22 03:26:36;;;;;;;;;0.50;0.50;;;;;-143.90;95.90;73841.03;4891991;28;102366;-73
2023/12/22 03:29:02;;;;;;;;;1.00;1.00;;;;;-143.90;93.83;73849.31;4902692;28;103668;-71
2023/12/22 03:31:29;;;;;;;;;1.75;0.75;;;;;-143.90;93.60;73863.78;4905004;28;104035;-72
2023/12/22 03:33:56;;;;;;;;;2.75;0.75;;;;;-143.90;93.28;73865.84;4898093;28;102169;-72
2023/12/22 03:36:22;;;;;;;;;1.00;1.00;;;;;-143.90;93.61;73867.91;4890025;28;102509;-72
2023/12/22 03:38:49;;;;;;;;;1.00;1.00;;;;;-143.90;92.07;73874.09;4899048;28;104331;-73
2023/12/22 03:41:16;;;;;;;;;1.50;1.00;;;;;-143.90;92.42;73876.16;4901824;28;104160;-73
2023/12/22 03:43:42;;;;;;;;;2.75;1.75;;;;;-143.90;92.18;73876.16;4906671;28;102387;-73
2023/12/22 03:46:09;;;;;;;;;1.75;1.00;;;;;-143.90;90.23;73882.38;4901015;28;104784;-71
2023/12/22 03:48:35;;;;;;;;;0.00;0.00;;;;;-143.90;91.36;73874.09;4892630;28;102706;-73
2023/12/22 03:51:02;;;;;;;;;2.50;1.00;;;;;-143.90;91.70;73874.09;4896939;28;103057;-73
2023/12/22 03:53:29;;;;;;;;;3.25;1.00;;;;;-143.90;94.11;73878.25;4905623;28;101979;-72
2023/12/22 03:55:55;;;;;;;;;1.00;1.00;;;;;-143.90;93.76;73890.63;4904188;28;102882;-73
2023/12/22 03:58:22;;;;;;;;;1.00;1.00;;;;;-143.90;94.76;73874.09;4889784;28;102562;-74
2023/12/22 04:00:49;;;;;;;;;1.00;1.00;;;;;-143.90;93.52;73894.78;4903540;28;104034;-73
2023/12/22 04:03:15;;;;;;;;;1.00;0.00;;;;;-143.90;92.89;73884.44;4899026;28;102418;-72
2023/12/22 04:05:42;;;;;;;;;1.00;1.00;;;;;-143.90;94.60;73878.25;4901191;28;102409;-72
2023/12/22 04:08:09;;;;;;;;;2.75;1.00;;;;;-143.90;94.09;73869.97;4898632;28;103474;-71
2023/12/22 04:10:35;;;;;;;;;1.75;1.00;;;;;-143.90;94.46;73878.25;4891407;28;104488;-72
2023/12/22 04:13:02;;;;;;;;;2.00;1.00;;;;;-143.90;94.49;73886.50;4901711;28;102271;-74
2023/12/22 04:15:29;;;;;;;;;2.50;2.00;;;;;-143.90;94.24;73900.97;4892823;28;102067;-73
2023/12/22 04:17:55;;;;;;;;;1.00;1.00;;;;;-143.90;95.73;73903.03;4900895;28;103807;-72
2023/12/22 04:20:23;;;;;;;;;2.50;1.50;;;;;-143.90;95.87;73911.31;4887458;28;103762;-74
2023/12/22 04:22:50;;;;;;;;;1.00;0.00;;;;;-143.90;97.96;73915.44;4904687;28;104488;-73
2023/12/22 04:25:17;;;;;;;;;1.00;1.00;;;;;-143.90;98.37;73911.31;4902971;28;102159;-73
2023/12/22 04:27:44;;;;;;;;;3.00;2.00;;;;;-143.90;97.57;73907.16;4901008;28;104173;-73
2023/12/22 04:30:12;;;;;;;;;1.00;1.00;;;;;-143.90;96.97;73915.44;4913107;28;103999;-73
2023/12/22 04:32:38;;;;;;;;;0.25;0.25;;;;;-143.90;98.82;73919.56;4911215;28;102273;-74
2023/12/22 04:35:05;;;;;;;;;1.75;0.75;;;;;-143.90;99.91;73936.09;4898541;28;103855;-73
2023/12/22 04:37:32;;;;;;;;;0.00;0.00;;;;;-143.90;100.00;73954.72;4901778;28;102666;-73
2023/12/22 04:39:59;;;;;;;;;2.25;1.00;;;;;-143.90;100.00;73989.84;4905729;28;103994;-73
2023/12/22 04:42:26;;;;;;;;;2.50;2.00;;;;;-143.90;100.00;74037.38;4889697;28;102550;-72
2023/12/22 04:44:52;;;;;;;;;2.00;1.50;;;;;-143.90;100.00;74163.47;4901902;28;102383;-75
2023/12/22 04:47:19;;;;;;;;;0.50;0.50;;;;;-143.90;100.00;74297.81;4887944;28;105772;-77
2023/12/22 04:49:46;;;;;;;;;1.00;0.00;;;;;-143.90;100.00;74357.75;4890742;28;104083;-71
2023/12/22 04:52:13;;;;;;;;;3.00;1.00;;;;;-143.90;100.00;74363.94;4894009;28;102844;-71
2023/12/22 04:54:39;;;;;;;;;0.00;0.00;;;;;-143.90;100.00;74361.88;4891109;28;102171;-71
2023/12/22 04:57:06;;;;;;;;;1.00;1.00;;;;;-143.90;100.00;74366.00;4899022;28;102444;-69
2023/12/22 04:59:33;;;;;;;;;0.00;0.00;;;;;-143.90;100.00;74380.47;4895597;28;103010;-71
2023/12/22 05:02:00;;;;;;;;;1.00;1.00;;;;;-143.90;100.00;74372.22;4896892;28;104685;-72
2023/12/22 05:04:27;;;;;;;;;3.50;1.00;;;;;-143.90;100.00;74384.63;4887246;28;102360;-72
2023/12/22 05:06:54;;;;;;;;;2.00;1.00;;;;;-143.90;100.00;74394.94;4902689;28;102400;-72
2023/12/22 05:09:20;;;;;;;;;2.50;1.00;;;;;-143.90;100.00;74401.16;4891096;28;104148;-72
2023/12/22 05:11:47;;;;;;;;;1.75;1.00;;;;;-143.90;100.00;74399.09;4899313;28;102773;-72
2023/12/22 05:14:14;;;;;;;;;1.25;1.25;;;;;-143.90;100.00;74407.34;4895597;28;104908;-72
2023/12/22 05:16:40;;;;;;;;;1.50;1.00;;;;;-143.90;100.00;74411.50;4895141;28;104273;-72
2023/12/22 05:19:07;;;;;;;;;1.75;1.00;;;;;-143.90;100.00;74428.03;4901837;28;103973;-71
2023/12/22 05:21:34;;;;;;;;;3.50;1.00;;;;;-143.90;100.00;74428.03;4902139;28;102269;-74
2023/12/22 05:24:00;;;;;;;;;0.25;0.00;;;;;-143.90;100.00;74432.16;4901803;28;102215;-73
2023/12/22 05:26:30;;;;;;;;;0.00;0.00;;;;;-143.90;100.00;74423.88;4893119;28;102316;-70
2023/12/22 05:28:57;;;;;;;;;0.00;0.00;;;;;-143.90;100.00;74413.56;4899145;28;108654;-70
2023/12/22 05:31:24;;;;;;;;;0.00;0.00;;;;;-143.90;100.00;74411.50;4907409;28;102413;-71
2023/12/22 05:33:50;;;;;;;;;0.00;0.00;;;;;-143.90;100.00;74399.09;4905046;28;103267;-71
2023/12/22 05:36:17;;;;;;;;;1.25;0.00;;;;;-143.90;100.00;74390.81;4900787;28;102399;-72
2023/12/22 05:38:44;;;;;;;;;4.25;0.00;;;;;-143.90;100.00;74374.28;4918629;28;104003;-71
2023/12/22 05:41:11;;;;;;;;;5.00;1.25;;;;;-143.90;100.00;74368.09;4907504;28;104864;-72
2023/12/22 05:43:37;;;;;;;;;1.00;1.00;;;;;-143.90;100.00;74349.47;4907108;28;102516;-72
2023/12/22 05:46:04;;;;;;;;;5.00;2.00;;;;;-143.90;100.00;74353.63;4906951;28;102244;-72
2023/12/22 05:48:30;;;;;;;;;2.00;2.00;;;;;-143.90;100.00;74345.34;4893870;28;104264;-71
2023/12/22 05:50:57;;;;;;;;;4.75;4.00;;;;;-143.90;100.00;74337.06;4908079;28;102366;-71
2023/12/22 05:53:24;;;;;;;;;5.00;5.00;;;;;-143.90;100.00;74339.16;4906239;28;102308;-71
2023/12/22 05:55:51;;;;;;;;;8.25;6.25;;;;;-143.90;100.00;74345.34;4907028;28;102444;-71
2023/12/22 05:58:17;;;;;;;;;4.00;4.00;;;;;-143.90;100.00;74361.88;4897063;28;106123;-71
2023/12/22 06:00:44;;;;;;;;;5.50;5.00;;;;;-143.90;100.00;74351.53;4902167;28;102356;-72
2023/12/22 06:03:11;;;;;;;;;1.25;1.00;;;;;-143.90;100.00;74353.63;4905798;28;101973;-72
2023/12/22 06:05:38;;;;;;;;;4.00;2.00;;;;;-143.90;100.00;74351.53;4907014;28;101936;-72
2023/12/22 06:08:05;;;;;;;;;1.00;1.00;;;;;-143.90;100.00;74339.16;4917410;28;104019;-71
2023/12/22 06:10:32;;;;;;;;;2.00;2.00;;;;;-143.90;100.00;74341.22;4895666;28;102347;-71
2023/12/22 06:13:02;;;;;;;;;1.00;1.00;;;;;-143.90;100.00;74332.94;4906346;28;102689;-71
2023/12/22 06:15:29;;;;;;;;;1.50;1.00;;;;;-143.90;100.00;74337.06;4907494;28;102025;-71
2023/12/22 06:17:56;;;;;;;;;2.00;1.00;;;;;-143.90;100.00;74320.53;4906452;28;108843;-71
2023/12/22 06:20:22;;;;;;;;;4.00;1.75;;;;;-143.90;100.00;74312.28;4895321;28;103089;-72
2023/12/22 06:22:49;;;;;;;;;2.00;2.00;;;;;-143.90;100.00;74285.41;4908259;28;102041;-71
2023/12/22 06:25:16;;;;;;;;;1.50;1.50;;;;;-143.90;100.00;74283.34;4908150;28;102462;-72
2023/12/22 06:27:45;;;;;;;;;5.25;1.00;;;;;-143.90;100.00;74287.47;4905283;28;104239;-71
2023/12/22 06:30:13;;;;;;;;;1.00;1.00;;;;;-143.90;100.00;74266.81;4904793;28;102353;-70
2023/12/22 06:32:41;;;;;;;;;1.50;1.50;;;;;-143.90;100.00;74275.06;4900803;28;102201;-71
2023/12/22 06:35:09;;;;;;;;;2.50;1.50;;;;;-143.90;100.00;74279.22;4906868;28;102404;-71
2023/12/22 06:37:39;;;;;;;;;1.25;1.00;;;;;-143.90;100.00;74283.34;4905097;28;104163;-69
2023/12/22 06:40:06;;;;;;;;;2.00;1.75;;;;;-143.90;100.00;74299.88;4903386;28;101956;-71
2023/12/22 06:42:33;;;;;;;;;2.00;2.00;;;;;-143.90;100.00;74322.59;4894192;28;102396;-71
2023/12/22 06:45:00;;;;;;;;;4.50;2.50;;;;;-143.90;100.00;74320.53;4905435;28;102440;-71
2023/12/22 06:47:26;;;;;;;;;5.75;3.50;;;;;-143.90;100.00;74324.69;4919002;28;108514;-70
2023/12/22 06:49:54;;;;;;;;;9.25;5.75;;;;;-143.90;100.00;74324.69;4904794;28;102809;-71
2023/12/22 06:52:20;;;;;;;;;6.25;5.00;;;;;-143.90;100.00;74326.75;4897739;28;102012;-71
2023/12/22 06:54:47;;;;;;;;;6.50;5.00;;;;;-143.90;100.00;74332.94;4901667;28;102093;-71
2023/12/22 06:57:14;;;;;;;;;7.00;5.50;;;;;-143.90;100.00;74351.53;4907712;28;103970;-71
2023/12/22 06:59:43;;;;;;;;;9.50;7.00;;;;;-143.90;100.00;74355.69;4903902;28;102315;-71
2023/12/22 07:02:11;;;;;;;;;8.25;7.00;;;;;-143.90;100.00;74353.63;4906560;28;102222;-70
2023/12/22 07:05:25;;;;;;;;;8.00;5.75;;;;;-143.90;100.00;74349.47;4904613;28;102278;-72
2023/12/22 07:07:54;;;;;;;;;4.00;4.00;;;;;-143.90;100.00;74351.53;4901525;28;108657;-71
2023/12/22 07:10:20;;;;;;;;;4.50;3.00;;;;;-143.90;100.00;74353.63;4897853;28;102217;-72
2023/12/22 07:12:47;;;;;;;;;4.25;3.50;;;;;-143.90;100.00;74341.22;4905006;28;102533;-71
2023/12/22 07:15:14;;;;;;;;;7.75;5.50;;;;;-143.90;100.00;74347.41;4904661;28;102372;-71
2023/12/22 07:17:40;;;;;;;;;6.50;4.00;;;;;-143.90;100.00;74337.06;4906052;28;104090;-71
2023/12/22 07:20:09;;;;;;;;;6.50;5.75;;;;;-143.90;100.00;74337.06;4904835;28;102633;-72
2023/12/22 07:22:35;;;;;;;;;5.00;5.00;;;;;-143.90;100.00;74343.28;4895320;28;101983;-72
2023/12/22 07:25:02;;;;;;;;;3.00;2.00;;;;;-143.90;100.00;74337.06;4907450;28;102606;-72
2023/12/22 07:27:28;;;;;;;;;2.00;2.00;;;;;-143.90;100.00;74332.94;4908505;28;104108;-71
2023/12/22 07:29:55;;;;;;;;;4.00;2.00;;;;;-143.90;100.00;74324.69;4905135;28;104134;-71
2023/12/22 07:32:22;;;;;;;;;4.75;2.00;;;;;-143.90;100.00;74324.69;4894429;28;102447;-71
2023/12/22 07:34:48;;;;;;;;;4.25;2.00;;;;;-143.90;100.00;74320.53;4907031;28;102085;-70
2023/12/22 07:37:15;;;;;;;;;8.25;4.25;;;;;-143.90;100.00;74324.69;4904811;28;104476;-71
2023/12/22 07:39:44;;;;;;;;;5.00;4.50;;;;;-143.90;100.00;74314.34;4904172;28;102192;-72
2023/12/22 07:42:11;;;;;;;;;6.50;5.00;;;;;-143.90;100.00;74312.28;4905015;28;102314;-71
2023/12/22 07:44:39;;;;;;;;;5.00;4.00;;;;;-143.90;100.00;74310.22;4897958;28;102414;-72
2023/12/22 07:47:07;;;;;;;;;8.00;6.50;;;;;-143.90;100.00;74320.53;4903291;28;104074;-71
2023/12/22 07:49:34;;;;;;;;;7.00;5.75;;;;;-143.90;100.00;74326.75;4905618;28;102419;-72
2023/12/22 07:52:00;;;;;;;;;8.00;5.00;;;;;-143.90;100.00;74322.59;4905496;28;103039;-72
2023/12/22 07:54:29;;;;;;;;;4.00;4.00;;;;;-143.90;100.00;74337.06;4895144;28;102034;-72
2023/12/22 07:56:56;;;;;;;;;5.50;5.50;;;;;-143.90;100.00;74326.75;4905734;28;108858;-72
2023/12/22 07:59:22;;;;;;;;;5.75;5.75;;;;;-143.90;100.00;74326.75;4904198;28;101984;-70
2023/12/22 08:01:57;;;;;;;;;13.75;8.00;;;;;-143.90;100.00;74320.53;4905220;28;104647;-71
2023/12/22 08:04:24;;;;;;;;;18.75;11.75;;;;;-143.90;100.00;74314.34;4894682;28;102303;-72
2023/12/22 08:06:52;;;;;;;;;13.75;9.25;;;;;-143.90;100.00;74301.94;4902023;28;104006;-71
2023/12/22 08:09:19;;;;;;;;;10.50;8.00;;;;;-143.90;100.00;74291.59;4904951;28;102072;-71
2023/12/22 08:11:46;;;;;;;;;14.50;9.00;;;;;-143.90;100.00;74283.34;4903919;28;102054;-71
2023/12/22 08:14:16;;;;;;;;;11.00;6.00;;;;;-143.90;100.00;74283.34;4902686;28;102385;-72
2023/12/22 08:16:44;;;;;;;;;6.00;5.50;;;;;-143.90;100.00;74275.06;4900032;28;104350;-72
2023/12/22 08:19:11;;;;;;;;;8.75;6.00;;;;;-143.90;100.00;74273.00;4904213;28;103753;-72
2023/12/22 08:21:37;;;;;;;;;10.75;8.50;;;;;-143.90;100.00;74275.06;4918502;28;102562;-72
2023/12/22 08:24:12;;;;;;;;;6.00;5.00;;;;;-143.90;100.00;74273.00;4903547;28;102438;-72
2023/12/22 08:26:48;;;;;;;;;9.75;8.00;;;;;-143.90;100.00;74283.34;4916903;28;104025;-70
2023/12/22 08:29:16;;;;;;;;;8.25;8.00;;;;;-143.90;100.00;74283.34;4904661;28;101992;-73
2023/12/22 08:31:46;;;;;;;;;13.25;7.50;;;;;-143.90;100.00;74277.13;4903426;28;101941;-72
2023/12/22 08:34:12;;;;;;;;;12.00;9.50;;;;;-143.90;100.00;74295.75;4904636;28;102225;-72
2023/12/22 08:36:39;;;;;;;;;10.50;9.75;;;;;-143.90;100.00;74299.88;4898047;28;104357;-72
2023/12/22 08:39:07;;;;;;;;;9.00;7.00;;;;;-143.90;100.00;74328.81;4905138;28;102365;-71
2023/12/22 08:41:37;;;;;;;;;8.25;6.50;;;;;-143.90;100.00;74332.94;4904054;28;102147;-72
2023/12/22 08:44:05;;;;;;;;;5.75;4.75;;;;;-143.90;100.00;74330.88;4905665;28;103023;-72
2023/12/22 08:46:32;;;;;;;;;6.25;5.75;;;;;-143.90;100.00;74394.94;4894971;28;104274;-71
2023/12/22 08:48:59;;;;;;;;;5.00;5.00;;;;;-143.90;100.00;74401.16;4905911;28;102488;-71
2023/12/22 08:51:27;;;;;;;;;4.75;4.00;;;;;-143.90;100.00;74401.16;4906636;28;101968;-71
2023/12/22 08:53:54;;;;;;;;;8.75;5.00;;;;;-143.90;100.00;74417.69;4903743;28;102346;-71
2023/12/22 08:56:24;;;;;;;;;6.50;5.00;;;;;-143.90;100.00;74390.81;4893085;28;104057;-74
2023/12/22 08:58:55;;;;;;;;;5.25;1.25;;;;;-143.90;100.00;74372.22;4906198;28;102696;-71
2023/12/22 09:01:22;;;;;;;;;9.00;6.00;;;;;-143.90;100.00;74370.16;4889441;28;102334;-72
2023/12/22 09:03:49;;;;;;;;;10.75;8.00;;;;;-143.90;100.00;74361.88;4902784;28;102271;-70
2023/12/22 09:06:20;;;;;;;;;7.00;5.50;;;;;-143.90;100.00;74353.63;4892704;28;104053;-71
2023/12/22 09:08:47;;;;;;;;;9.50;7.50;;;;;-143.90;100.00;74341.22;4920079;28;102430;-70
2023/12/22 09:11:17;;;;;;;;;9.25;7.50;;;;;-143.90;100.00;74341.22;4909646;28;105105;-70
2023/12/22 09:13:43;;;;;;;;;9.00;8.00;;;;;-143.90;100.00;74330.88;4906742;28;102619;-70
2023/12/22 09:16:11;;;;;;;;;8.50;7.75;;;;;-143.90;100.00;74322.59;4909922;28;103964;-71
2023/12/22 09:18:38;;;;;;;;;10.25;8.00;;;;;-143.90;100.00;74312.28;4900388;28;102301;-72
2023/12/22 09:21:04;;;;;;;;;8.50;6.00;;;;;-143.90;100.00;74283.34;4907406;28;102223;-71
2023/12/22 09:23:31;;;;;;;;;8.50;7.50;;;;;-143.90;100.00;74275.06;4906908;28;101983;-72
2023/12/22 09:25:58;;;;;;;;;9.75;6.75;;;;;-143.90;100.00;74273.00;4908389;28;104026;-72
2023/12/22 09:28:25;;;;;;;;;9.50;5.25;;;;;-143.90;100.00;74277.13;4896154;28;102995;-73
2023/12/22 09:30:52;;;;;;;;;16.00;12.25;;;;;-143.90;100.00;74299.88;4907191;28;102388;-71
2023/12/22 09:33:19;;;;;;;;;10.75;8.00;;;;;-143.90;100.00;74295.75;4906336;28;102261;-72
2023/12/22 09:35:46;;;;;;;;;14.00;7.00;;;;;-143.90;100.00;74308.13;4907340;28;104004;-71
2023/12/22 09:38:12;;;;;;;;;5.50;4.25;;;;;-143.90;100.00;74324.69;4908667;28;102381;-70
2023/12/22 09:40:43;;;;;;;;;5.25;4.00;;;;;-143.90;100.00;74324.69;4903970;28;102450;-71
2023/12/22 09:43:13;;;;;;;;;6.00;5.00;;;;;-143.90;100.00;74310.22;4910533;28;102277;-71
2023/12/22 09:45:41;;;;;;;;;7.00;5.75;;;;;-143.90;100.00;74291.59;4905272;28;104397;-71
2023/12/22 09:48:10;;;;;;;;;10.00;7.00;;;;;-143.90;100.00;74279.22;4908349;28;102939;-72
2023/12/22 09:50:39;;;;;;;;;12.25;8.25;;;;;-143.90;100.00;74266.81;4895230;28;102561;-72
2023/12/22 09:53:07;;;;;;;;;8.00;6.50;;;;;-143.90;100.00;74262.66;4906306;28;102152;-72
2023/12/22 09:55:35;;;;;;;;;9.25;6.50;;;;;-143.90;100.00;74264.72;4920063;28;103974;-72
2023/12/22 09:58:03;;;;;;;;;10.00;6.75;;;;;-143.90;100.00;74260.59;4908905;28;102270;-73
2023/12/22 10:00:31;;;;;;;;;13.00;7.50;;;;;-143.90;100.00;74275.06;4898223;28;102331;-72
2023/12/22 10:02:58;;;;;;;;;8.00;8.00;;;;;-143.90;100.00;74283.34;4907700;28;102383;-72
2023/12/22 10:05:26;;;;;;;;;12.25;11.25;;;;;-143.90;100.00;74268.88;4918987;28;103702;-72
2023/12/22 10:07:53;;;;;;;;;13.75;11.00;;;;;-143.90;100.00;74239.94;4905519;28;102411;-72
2023/12/22 10:10:21;;;;;;;;;13.50;10.00;;;;;-143.90;100.00;74213.06;4903664;28;102317;-72
2023/12/22 10:12:51;;;;;;;;;13.00;8.25;;;;;-143.90;100.00;74192.41;4907497;28;102382;-71
2023/12/22 10:15:23;;;;;;;;;12.00;10.00;;;;;-143.90;100.00;74163.47;4904466;28;104052;-72
2023/12/22 10:17:51;;;;;;;;;15.00;10.50;;;;;-143.90;100.00;74163.47;4904638;28;104118;-69
2023/12/22 10:20:19;;;;;;;;;14.00;8.00;;;;;-143.90;100.00;74155.19;4898969;28;102349;-75
2023/12/22 10:22:46;;;;;;;;;8.75;5.00;;;;;-143.90;100.00;74153.13;4908493;28;102513;-70
2023/12/22 10:25:20;;;;;;;;;5.75;4.50;;;;;-143.90;100.00;74130.38;4904681;28;104040;-71
2023/12/22 10:27:47;;;;;;;;;5.00;5.00;;;;;-143.90;100.00;74115.91;4905655;28;102564;-70
2023/12/22 10:30:14;;;;;;;;;3.00;1.75;;;;;-143.90;100.00;74109.72;4904202;28;102314;-73
2023/12/22 10:32:42;;;;;;;;;2.50;2.50;;;;;-143.90;100.00;74105.59;4905595;28;105004;-71
2023/12/22 10:35:09;;;;;;;;;2.50;1.00;;;;;-143.90;100.00;74095.25;4893633;28;104212;-71
2023/12/22 10:37:38;;;;;;;;;2.75;2.00;;;;;-143.90;100.00;74093.19;4906119;28;102059;-71
2023/12/22 10:40:08;;;;;;;;;2.25;2.25;;;;;-143.90;100.00;74084.91;4907098;28;104194;-72
2023/12/22 10:42:35;;;;;;;;;3.50;2.00;;;;;-143.90;100.00;74105.59;4897751;28;102851;-72
2023/12/22 10:45:02;;;;;;;;;3.00;2.00;;;;;-143.90;100.00;74118.00;4906830;28;104240;-72
2023/12/22 10:47:29;;;;;;;;;6.00;5.00;;;;;-143.90;100.00;74120.06;4908209;28;101979;-72
2023/12/22 10:49:56;;;;;;;;;2.00;2.00;;;;;-143.90;100.00;74157.25;4906411;28;102719;-72
2023/12/22 10:52:23;;;;;;;;;1.75;1.00;;;;;-143.90;100.00;74221.31;4896878;28;102259;-73
2023/12/22 10:54:50;;;;;;;;;3.00;3.00;;;;;-143.90;100.00;74273.00;4903951;28;103968;-72
2023/12/22 10:57:19;;;;;;;;;5.25;2.00;;;;;-143.90;100.00;74330.88;4908462;28;102450;-71
2023/12/22 10:59:47;;;;;;;;;3.50;3.25;;;;;-143.90;100.00;74386.69;4908464;28;102319;-72
2023/12/22 11:02:27;;;;;;;;;4.00;4.00;;;;;-143.90;100.00;74419.75;4897203;28;102856;-71
2023/12/22 11:05:00;;;;;;;;;4.25;2.00;;;;;-143.90;100.00;74413.56;4903721;28;104700;-70